sensor_id;sensor_type;location;lat;lon;timestamp;pressure;altitude;pressure_sealevel;temperature;humidity
57600;BME280;43426;43.594;24.334;2023-08-06T00:00:02;99763.41;;;21.46;79.58
57600;BME280;43426;43.594;24.334;2023-08-06T00:02:28;99732.28;;;21.25;79.31
57600;BME280;43426;43.594;24.334;2023-08-06T00:04:54;99766.38;;;21.39;79.51
57600;BME280;43426;43.594;24.334;2023-08-06T00:07:19;99736.63;;;21.16;80.27
57600;BME280;43426;43.594;24.334;2023-08-06T00:09:44;99726.44;;;21.11;80.00
57600;BME280;43426;43.594;24.334;2023-08-06T00:12:10;99745.75;;;21.32;80.22
57600;BME280;43426;43.594;24.334;2023-08-06T00:14:35;99741.00;;;21.17;80.02
57600;BME280;43426;43.594;24.334;2023-08-06T00:17:01;99773.69;;;21.23;80.61
57600;BME280;43426;43.594;24.334;2023-08-06T00:19:26;99742.38;;;21.14;80.00
57600;BME280;43426;43.594;24.334;2023-08-06T00:21:52;99751.16;;;21.16;80.56
57600;BME280;43426;43.594;24.334;2023-08-06T00:24:20;99749.78;;;21.14;81.08
57600;BME280;43426;43.594;24.334;2023-08-06T00:26:45;99741.22;;;21.05;80.88
57600;BME280;43426;43.594;24.334;2023-08-06T00:29:11;99767.59;;;21.11;81.03
57600;BME280;43426;43.594;24.334;2023-08-06T00:31:36;99779.13;;;21.13;80.89
57600;BME280;43426;43.594;24.334;2023-08-06T00:34:02;99792.00;;;21.07;81.21
57600;BME280;43426;43.594;24.334;2023-08-06T00:36:27;99787.38;;;21.13;81.06
57600;BME280;43426;43.594;24.334;2023-08-06T00:38:52;99772.75;;;21.02;81.05
57600;BME280;43426;43.594;24.334;2023-08-06T00:41:18;99745.81;;;20.94;81.36
57600;BME280;43426;43.594;24.334;2023-08-06T00:43:43;99767.09;;;21.19;80.69
57600;BME280;43426;43.594;24.334;2023-08-06T00:46:09;99750.00;;;21.02;80.63
57600;BME280;43426;43.594;24.334;2023-08-06T00:48:35;99784.63;;;21.18;80.23
57600;BME280;43426;43.594;24.334;2023-08-06T00:51:01;99765.38;;;21.08;79.98
57600;BME280;43426;43.594;24.334;2023-08-06T00:53:27;99768.66;;;21.05;80.07
57600;BME280;43426;43.594;24.334;2023-08-06T00:58:18;99794.22;;;21.11;80.28
57600;BME280;43426;43.594;24.334;2023-08-06T01:00:44;99791.41;;;21.05;80.16
57600;BME280;43426;43.594;24.334;2023-08-06T01:03:09;99804.59;;;21.08;79.70
57600;BME280;43426;43.594;24.334;2023-08-06T01:05:35;99810.63;;;21.05;79.75
57600;BME280;43426;43.594;24.334;2023-08-06T01:08:26;99799.00;;;20.93;79.70
57600;BME280;43426;43.594;24.334;2023-08-06T01:13:48;99802.06;;;20.97;79.41
57600;BME280;43426;43.594;24.334;2023-08-06T01:16:16;99817.53;;;21.13;79.61
57600;BME280;43426;43.594;24.334;2023-08-06T01:18:42;99783.34;;;20.88;79.92
57600;BME280;43426;43.594;24.334;2023-08-06T01:21:14;99772.41;;;20.88;80.08
57600;BME280;43426;43.594;24.334;2023-08-06T01:23:40;99792.75;;;20.98;79.74
57600;BME280;43426;43.594;24.334;2023-08-06T01:26:26;99783.13;;;20.95;79.31
57600;BME280;43426;43.594;24.334;2023-08-06T01:31:27;99768.84;;;20.93;79.02
57600;BME280;43426;43.594;24.334;2023-08-06T01:33:53;99754.00;;;20.89;78.40
57600;BME280;43426;43.594;24.334;2023-08-06T01:36:21;99758.09;;;20.86;78.53
57600;BME280;43426;43.594;24.334;2023-08-06T01:38:48;99702.97;;;20.45;78.29
57600;BME280;43426;43.594;24.334;2023-08-06T01:41:14;99778.78;;;20.99;77.97
57600;BME280;43426;43.594;24.334;2023-08-06T01:43:39;99761.69;;;20.87;78.50
57600;BME280;43426;43.594;24.334;2023-08-06T01:46:04;99744.88;;;20.78;79.09
57600;BME280;43426;43.594;24.334;2023-08-06T01:48:30;99726.56;;;20.84;78.86
57600;BME280;43426;43.594;24.334;2023-08-06T01:50:55;99710.31;;;20.72;79.34
57600;BME280;43426;43.594;24.334;2023-08-06T01:53:21;99672.34;;;20.53;79.42
57600;BME280;43426;43.594;24.334;2023-08-06T01:55:49;99655.28;;;20.46;80.28
57600;BME280;43426;43.594;24.334;2023-08-06T01:58:15;99684.44;;;20.63;79.86
57600;BME280;43426;43.594;24.334;2023-08-06T02:00:41;99652.31;;;20.53;80.06
57600;BME280;43426;43.594;24.334;2023-08-06T02:03:06;99672.13;;;20.65;80.16
57600;BME280;43426;43.594;24.334;2023-08-06T02:05:31;99671.03;;;20.66;79.04
57600;BME280;43426;43.594;24.334;2023-08-06T02:07:57;99715.34;;;20.90;78.52
57600;BME280;43426;43.594;24.334;2023-08-06T02:10:22;99683.94;;;20.66;78.70
57600;BME280;43426;43.594;24.334;2023-08-06T02:12:48;99717.78;;;20.82;78.83
57600;BME280;43426;43.594;24.334;2023-08-06T06:08:11;99716.19;;;19.94;100.00
57600;BME280;43426;43.594;24.334;2023-08-06T06:10:37;99768.16;;;20.16;100.00
57600;BME280;43426;43.594;24.334;2023-08-06T06:13:03;99784.38;;;20.17;100.00
57600;BME280;43426;43.594;24.334;2023-08-06T06:15:28;99777.22;;;20.16;100.00
57600;BME280;43426;43.594;24.334;2023-08-06T06:17:53;99768.75;;;20.18;100.00
57600;BME280;43426;43.594;24.334;2023-08-06T06:20:19;99778.25;;;20.37;100.00
57600;BME280;43426;43.594;24.334;2023-08-06T06:22:44;99749.94;;;20.27;100.00
57600;BME280;43426;43.594;24.334;2023-08-06T06:25:10;99728.28;;;20.25;100.00
57600;BME280;43426;43.594;24.334;2023-08-06T06:27:35;99738.22;;;20.31;100.00
57600;BME280;43426;43.594;24.334;2023-08-06T06:30:01;99783.41;;;20.34;100.00
57600;BME280;43426;43.594;24.334;2023-08-06T06:32:26;99786.00;;;20.46;100.00
57600;BME280;43426;43.594;24.334;2023-08-06T06:34:52;99755.66;;;20.25;100.00
57600;BME280;43426;43.594;24.334;2023-08-06T06:37:17;99756.53;;;20.31;100.00
57600;BME280;43426;43.594;24.334;2023-08-06T06:39:43;99723.19;;;20.06;100.00
57600;BME280;43426;43.594;24.334;2023-08-06T06:42:09;99762.09;;;20.08;100.00
57600;BME280;43426;43.594;24.334;2023-08-06T06:44:34;99797.16;;;20.12;100.00
57600;BME280;43426;43.594;24.334;2023-08-06T06:47:00;99799.81;;;20.01;100.00
57600;BME280;43426;43.594;24.334;2023-08-06T06:49:25;99783.72;;;19.83;100.00
57600;BME280;43426;43.594;24.334;2023-08-06T06:51:51;99751.59;;;19.78;100.00
57600;BME280;43426;43.594;24.334;2023-08-06T06:54:16;99744.56;;;19.82;100.00
57600;BME280;43426;43.594;24.334;2023-08-06T06:56:41;99730.22;;;19.75;100.00
57600;BME280;43426;43.594;24.334;2023-08-06T06:59:07;99715.53;;;19.81;100.00
57600;BME280;43426;43.594;24.334;2023-08-06T07:01:32;99695.91;;;19.67;100.00
57600;BME280;43426;43.594;24.334;2023-08-06T07:03:58;99679.84;;;19.49;100.00
57600;BME280;43426;43.594;24.334;2023-08-06T07:06:23;99706.81;;;19.62;100.00
57600;BME280;43426;43.594;24.334;2023-08-06T07:08:49;99732.16;;;19.74;100.00
57600;BME280;43426;43.594;24.334;2023-08-06T07:11:14;99799.31;;;19.82;100.00
57600;BME280;43426;43.594;24.334;2023-08-06T07:13:40;99834.34;;;19.80;100.00
57600;BME280;43426;43.594;24.334;2023-08-06T07:16:05;99823.09;;;19.60;100.00
57600;BME280;43426;43.594;24.334;2023-08-06T07:18:30;99859.06;;;19.68;100.00
57600;BME280;43426;43.594;24.334;2023-08-06T07:20:56;99855.41;;;19.63;100.00
57600;BME280;43426;43.594;24.334;2023-08-06T07:23:23;99835.25;;;19.47;100.00
57600;BME280;43426;43.594;24.334;2023-08-06T07:25:49;99847.84;;;19.70;100.00
57600;BME280;43426;43.594;24.334;2023-08-06T07:28:15;99862.13;;;19.72;100.00
57600;BME280;43426;43.594;24.334;2023-08-06T07:30:42;99828.50;;;19.54;100.00
57600;BME280;43426;43.594;24.334;2023-08-06T07:33:08;99857.72;;;19.71;100.00
57600;BME280;43426;43.594;24.334;2023-08-06T07:35:34;99823.53;;;19.51;100.00
57600;BME280;43426;43.594;24.334;2023-08-06T07:38:02;99838.56;;;19.71;100.00
57600;BME280;43426;43.594;24.334;2023-08-06T07:40:29;99827.81;;;19.86;100.00
57600;BME280;43426;43.594;24.334;2023-08-06T07:42:55;99757.16;;;19.61;100.00
57600;BME280;43426;43.594;24.334;2023-08-06T07:45:20;99799.06;;;19.84;100.00
57600;BME280;43426;43.594;24.334;2023-08-06T07:47:46;99766.19;;;19.62;100.00
57600;BME280;43426;43.594;24.334;2023-08-06T07:50:12;99815.88;;;19.76;100.00
57600;BME280;43426;43.594;24.334;2023-08-06T07:52:39;99783.72;;;19.61;100.00
57600;BME280;43426;43.594;24.334;2023-08-06T07:55:06;99780.88;;;19.78;100.00
57600;BME280;43426;43.594;24.334;2023-08-06T07:57:32;99773.66;;;19.66;100.00
57600;BME280;43426;43.594;24.334;2023-08-06T07:59:58;99802.88;;;19.61;100.00
57600;BME280;43426;43.594;24.334;2023-08-06T08:02:24;99830.94;;;19.73;100.00
57600;BME280;43426;43.594;24.334;2023-08-06T08:04:50;99816.28;;;19.62;100.00
57600;BME280;43426;43.594;24.334;2023-08-06T08:07:16;99816.78;;;19.59;100.00
57600;BME280;43426;43.594;24.334;2023-08-06T08:09:41;99830.94;;;19.73;100.00
57600;BME280;43426;43.594;24.334;2023-08-06T08:12:07;99844.63;;;19.73;100.00
57600;BME280;43426;43.594;24.334;2023-08-06T08:14:33;99879.09;;;19.91;100.00
57600;BME280;43426;43.594;24.334;2023-08-06T08:17:03;99873.47;;;20.03;100.00
57600;BME280;43426;43.594;24.334;2023-08-06T08:19:31;99881.19;;;20.06;100.00
57600;BME280;43426;43.594;24.334;2023-08-06T08:21:59;99877.22;;;20.41;100.00
57600;BME280;43426;43.594;24.334;2023-08-06T08:24:25;99902.94;;;20.40;100.00
57600;BME280;43426;43.594;24.334;2023-08-06T08:26:51;99924.47;;;20.53;100.00
57600;BME280;43426;43.594;24.334;2023-08-06T08:29:17;99919.88;;;20.59;100.00
57600;BME280;43426;43.594;24.334;2023-08-06T08:31:42;99888.53;;;20.50;100.00
57600;BME280;43426;43.594;24.334;2023-08-06T08:34:09;99910.69;;;20.70;100.00
57600;BME280;43426;43.594;24.334;2023-08-06T08:36:35;99888.38;;;20.62;100.00
57600;BME280;43426;43.594;24.334;2023-08-06T08:39:00;99867.47;;;20.55;100.00
57600;BME280;43426;43.594;24.334;2023-08-06T08:41:28;99886.47;;;20.62;100.00
57600;BME280;43426;43.594;24.334;2023-08-06T08:43:55;99881.88;;;20.68;100.00
57600;BME280;43426;43.594;24.334;2023-08-06T08:46:24;99862.53;;;20.52;100.00
57600;BME280;43426;43.594;24.334;2023-08-06T08:48:51;99881.78;;;20.63;100.00
57600;BME280;43426;43.594;24.334;2023-08-06T08:51:16;99863.25;;;20.70;100.00
57600;BME280;43426;43.594;24.334;2023-08-06T08:53:44;99876.94;;;20.97;100.00
57600;BME280;43426;43.594;24.334;2023-08-06T08:56:11;99872.78;;;20.89;100.00
57600;BME280;43426;43.594;24.334;2023-08-06T08:58:38;99840.34;;;20.81;100.00
57600;BME280;43426;43.594;24.334;2023-08-06T09:01:04;99835.34;;;20.78;100.00
57600;BME280;43426;43.594;24.334;2023-08-06T09:03:30;99852.63;;;21.06;100.00
57600;BME280;43426;43.594;24.334;2023-08-06T09:05:57;99857.06;;;21.17;100.00
57600;BME280;43426;43.594;24.334;2023-08-06T09:08:27;99844.44;;;21.16;100.00
57600;BME280;43426;43.594;24.334;2023-08-06T09:10:55;99859.34;;;21.25;100.00
57600;BME280;43426;43.594;24.334;2023-08-06T09:13:22;99863.75;;;21.32;100.00
57600;BME280;43426;43.594;24.334;2023-08-06T09:15:48;99853.91;;;21.36;100.00
57600;BME280;43426;43.594;24.334;2023-08-06T09:18:25;99871.00;;;21.48;100.00
57600;BME280;43426;43.594;24.334;2023-08-06T09:20:51;99869.91;;;21.49;100.00
57600;BME280;43426;43.594;24.334;2023-08-06T09:23:16;99863.28;;;21.45;100.00
57600;BME280;43426;43.594;24.334;2023-08-06T09:25:42;99868.19;;;21.38;100.00
57600;BME280;43426;43.594;24.334;2023-08-06T09:28:07;99877.06;;;21.50;100.00
57600;BME280;43426;43.594;24.334;2023-08-06T09:30:35;99859.97;;;21.43;100.00
57600;BME280;43426;43.594;24.334;2023-08-06T09:33:01;99863.91;;;21.52;100.00
57600;BME280;43426;43.594;24.334;2023-08-06T09:35:31;99896.16;;;21.72;100.00
57600;BME280;43426;43.594;24.334;2023-08-06T09:38:10;99888.50;;;21.85;100.00
57600;BME280;43426;43.594;24.334;2023-08-06T09:40:36;99897.59;;;21.85;100.00
57600;BME280;43426;43.594;24.334;2023-08-06T09:43:02;99897.31;;;21.87;100.00
57600;BME280;43426;43.594;24.334;2023-08-06T09:45:45;99892.06;;;21.80;100.00
57600;BME280;43426;43.594;24.334;2023-08-06T09:48:11;99899.78;;;21.88;100.00
57600;BME280;43426;43.594;24.334;2023-08-06T09:50:38;99902.03;;;21.97;100.00
57600;BME280;43426;43.594;24.334;2023-08-06T09:53:05;99878.06;;;21.82;100.00
57600;BME280;43426;43.594;24.334;2023-08-06T09:55:32;99897.09;;;21.99;100.00
57600;BME280;43426;43.594;24.334;2023-08-06T09:57:58;99891.09;;;22.12;100.00
57600;BME280;43426;43.594;24.334;2023-08-06T10:00:24;99890.59;;;22.20;100.00
57600;BME280;43426;43.594;24.334;2023-08-06T10:02:50;99893.13;;;22.37;100.00
57600;BME280;43426;43.594;24.334;2023-08-06T10:05:20;99875.50;;;22.33;98.93
57600;BME280;43426;43.594;24.334;2023-08-06T10:07:46;99867.59;;;22.37;99.54
57600;BME280;43426;43.594;24.334;2023-08-06T10:10:12;99876.94;;;22.41;100.00
57600;BME280;43426;43.594;24.334;2023-08-06T10:12:46;99874.78;;;22.58;100.00
57600;BME280;43426;43.594;24.334;2023-08-06T10:15:15;99870.66;;;22.66;100.00
57600;BME280;43426;43.594;24.334;2023-08-06T10:17:43;99841.25;;;22.77;100.00
57600;BME280;43426;43.594;24.334;2023-08-06T10:20:10;99839.59;;;23.17;95.73
57600;BME280;43426;43.594;24.334;2023-08-06T10:22:36;99838.19;;;23.45;96.11
57600;BME280;43426;43.594;24.334;2023-08-06T10:25:05;99830.06;;;23.80;94.46
57600;BME280;43426;43.594;24.334;2023-08-06T10:27:40;99826.53;;;24.29;92.05
57600;BME280;43426;43.594;24.334;2023-08-06T10:30:31;99797.03;;;24.99;91.95
57600;BME280;43426;43.594;24.334;2023-08-06T10:32:58;99794.97;;;25.15;84.49
57600;BME280;43426;43.594;24.334;2023-08-06T10:35:43;99810.75;;;25.63;85.66
57600;BME280;43426;43.594;24.334;2023-08-06T10:38:20;99813.94;;;25.94;82.41
57600;BME280;43426;43.594;24.334;2023-08-06T10:43:29;99798.22;;;26.33;73.61
57600;BME280;43426;43.594;24.334;2023-08-06T10:45:56;99798.06;;;26.43;73.71
57600;BME280;43426;43.594;24.334;2023-08-06T10:48:35;99807.56;;;26.75;74.99
57600;BME280;43426;43.594;24.334;2023-08-06T10:51:02;99801.94;;;26.94;70.44
57600;BME280;43426;43.594;24.334;2023-08-06T10:53:27;99797.25;;;26.95;67.53
57600;BME280;43426;43.594;24.334;2023-08-06T10:55:53;99768.69;;;26.80;67.75
57600;BME280;43426;43.594;24.334;2023-08-06T10:58:18;99793.28;;;27.15;67.31
57600;BME280;43426;43.594;24.334;2023-08-06T11:00:44;99804.53;;;27.38;63.13
57600;BME280;43426;43.594;24.334;2023-08-06T11:03:09;99781.19;;;27.25;64.15
57600;BME280;43426;43.594;24.334;2023-08-06T11:05:39;99800.00;;;27.69;66.27
57600;BME280;43426;43.594;24.334;2023-08-06T11:08:04;99775.34;;;27.82;62.80
57600;BME280;43426;43.594;24.334;2023-08-06T11:17:14;99778.50;;;28.03;59.73
57600;BME280;43426;43.594;24.334;2023-08-06T11:19:41;99784.97;;;28.12;61.71
57600;BME280;43426;43.594;24.334;2023-08-06T11:22:06;99766.69;;;28.11;62.72
57600;BME280;43426;43.594;24.334;2023-08-06T11:24:31;99778.00;;;28.37;58.72
57600;BME280;43426;43.594;24.334;2023-08-06T11:26:57;99765.06;;;28.56;57.48
57600;BME280;43426;43.594;24.334;2023-08-06T11:29:22;99764.53;;;28.31;59.22
57600;BME280;43426;43.594;24.334;2023-08-06T11:31:48;99772.28;;;28.20;60.60
57600;BME280;43426;43.594;24.334;2023-08-06T11:34:13;99761.50;;;28.41;59.95
57600;BME280;43426;43.594;24.334;2023-08-06T11:36:41;99765.38;;;28.77;59.19
57600;BME280;43426;43.594;24.334;2023-08-06T11:39:07;99766.84;;;29.05;59.49
57600;BME280;43426;43.594;24.334;2023-08-06T11:41:35;99769.72;;;29.23;58.93
57600;BME280;43426;43.594;24.334;2023-08-06T11:44:03;99776.72;;;29.61;57.53
57600;BME280;43426;43.594;24.334;2023-08-06T11:46:28;99765.75;;;29.55;53.78
57600;BME280;43426;43.594;24.334;2023-08-06T11:48:58;99746.94;;;29.44;53.92
57600;BME280;43426;43.594;24.334;2023-08-06T11:51:27;99762.50;;;29.22;55.40
57600;BME280;43426;43.594;24.334;2023-08-06T11:53:56;99755.94;;;29.18;57.39
57600;BME280;43426;43.594;24.334;2023-08-06T12:00:25;99748.34;;;29.90;53.15
57600;BME280;43426;43.594;24.334;2023-08-06T12:02:53;99738.50;;;29.84;54.55
57600;BME280;43426;43.594;24.334;2023-08-06T12:05:21;99746.69;;;29.89;52.18
57600;BME280;43426;43.594;24.334;2023-08-06T12:07:50;99736.72;;;30.14;50.96
57600;BME280;43426;43.594;24.334;2023-08-06T12:10:16;99725.25;;;30.42;50.96
57600;BME280;43426;43.594;24.334;2023-08-06T12:12:42;99724.28;;;30.55;49.88
57600;BME280;43426;43.594;24.334;2023-08-06T12:15:09;99723.97;;;30.48;47.62
57600;BME280;43426;43.594;24.334;2023-08-06T12:17:35;99743.63;;;30.52;47.67
57600;BME280;43426;43.594;24.334;2023-08-06T12:20:02;99743.69;;;30.90;50.31
57600;BME280;43426;43.594;24.334;2023-08-06T12:22:29;99739.66;;;31.18;46.15
57600;BME280;43426;43.594;24.334;2023-08-06T12:24:57;99726.50;;;31.27;45.72
57600;BME280;43426;43.594;24.334;2023-08-06T12:27:23;99721.63;;;31.15;45.90
57600;BME280;43426;43.594;24.334;2023-08-06T12:29:51;99728.50;;;31.18;44.94
57600;BME280;43426;43.594;24.334;2023-08-06T12:32:17;99738.66;;;30.66;44.86
57600;BME280;43426;43.594;24.334;2023-08-06T12:34:43;99712.81;;;30.48;45.54
57600;BME280;43426;43.594;24.334;2023-08-06T12:37:09;99729.59;;;30.87;46.81
57600;BME280;43426;43.594;24.334;2023-08-06T12:39:37;99719.78;;;30.81;45.10
57600;BME280;43426;43.594;24.334;2023-08-06T12:42:04;99690.44;;;30.92;44.70
57600;BME280;43426;43.594;24.334;2023-08-06T12:44:30;99704.69;;;31.29;44.28
57600;BME280;43426;43.594;24.334;2023-08-06T12:46:56;99718.88;;;31.75;43.41
57600;BME280;43426;43.594;24.334;2023-08-06T12:49:25;99703.47;;;31.90;41.88
57600;BME280;43426;43.594;24.334;2023-08-06T12:51:51;99712.25;;;32.01;42.55
57600;BME280;43426;43.594;24.334;2023-08-06T12:54:17;99676.94;;;31.84;42.47
57600;BME280;43426;43.594;24.334;2023-08-06T12:56:44;99707.50;;;32.22;42.59
57600;BME280;43426;43.594;24.334;2023-08-06T12:59:09;99690.16;;;31.74;40.85
57600;BME280;43426;43.594;24.334;2023-08-06T13:01:37;99671.72;;;31.31;42.08
57600;BME280;43426;43.594;24.334;2023-08-06T13:04:03;99682.34;;;31.08;43.54
57600;BME280;43426;43.594;24.334;2023-08-06T13:06:28;99680.09;;;30.93;42.70
57600;BME280;43426;43.594;24.334;2023-08-06T13:08:54;99694.41;;;30.73;42.46
57600;BME280;43426;43.594;24.334;2023-08-06T13:11:19;99677.00;;;30.20;43.12
57600;BME280;43426;43.594;24.334;2023-08-06T13:13:44;99685.19;;;29.91;44.76
57600;BME280;43426;43.594;24.334;2023-08-06T13:16:10;99689.75;;;29.86;44.35
57600;BME280;43426;43.594;24.334;2023-08-06T13:18:35;99710.19;;;29.73;45.67
57600;BME280;43426;43.594;24.334;2023-08-06T13:21:03;99721.09;;;29.52;45.42
57600;BME280;43426;43.594;24.334;2023-08-06T13:23:29;99697.66;;;29.27;45.76
57600;BME280;43426;43.594;24.334;2023-08-06T13:25:54;99699.41;;;29.22;46.23
57600;BME280;43426;43.594;24.334;2023-08-06T13:28:20;99706.41;;;29.11;46.62
57600;BME280;43426;43.594;24.334;2023-08-06T13:30:46;99719.03;;;28.77;46.88
57600;BME280;43426;43.594;24.334;2023-08-06T13:33:11;99699.56;;;28.54;46.60
57600;BME280;43426;43.594;24.334;2023-08-06T13:35:37;99704.56;;;28.44;46.43
57600;BME280;43426;43.594;24.334;2023-08-06T13:38:03;99707.84;;;28.23;48.23
57600;BME280;43426;43.594;24.334;2023-08-06T13:40:32;99725.25;;;28.15;48.41
57600;BME280;43426;43.594;24.334;2023-08-06T13:42:57;99731.31;;;28.17;48.34
57600;BME280;43426;43.594;24.334;2023-08-06T13:45:23;99711.31;;;28.06;47.06
57600;BME280;43426;43.594;24.334;2023-08-06T13:47:49;99709.75;;;28.14;48.40
57600;BME280;43426;43.594;24.334;2023-08-06T13:50:14;99713.97;;;28.11;48.33
57600;BME280;43426;43.594;24.334;2023-08-06T13:52:40;99710.63;;;28.23;49.17
57600;BME280;43426;43.594;24.334;2023-08-06T13:55:06;99697.50;;;28.15;48.96
57600;BME280;43426;43.594;24.334;2023-08-06T13:57:32;99702.19;;;28.28;48.19
57600;BME280;43426;43.594;24.334;2023-08-06T14:00:01;99704.78;;;28.25;48.55
57600;BME280;43426;43.594;24.334;2023-08-06T14:02:27;99693.16;;;28.23;48.64
57600;BME280;43426;43.594;24.334;2023-08-06T14:04:53;99689.06;;;28.20;47.79
57600;BME280;43426;43.594;24.334;2023-08-06T14:07:19;99691.44;;;28.35;48.25
57600;BME280;43426;43.594;24.334;2023-08-06T14:09:44;99685.97;;;28.67;47.12
57600;BME280;43426;43.594;24.334;2023-08-06T14:12:10;99679.19;;;28.82;46.98
57600;BME280;43426;43.594;24.334;2023-08-06T14:14:35;99692.16;;;29.44;46.26
57600;BME280;43426;43.594;24.334;2023-08-06T14:17:04;99677.31;;;29.84;44.29
57600;BME280;43426;43.594;24.334;2023-08-06T14:19:29;99685.84;;;29.96;44.58
57600;BME280;43426;43.594;24.334;2023-08-06T14:21:57;99680.09;;;29.75;44.27
57600;BME280;43426;43.594;24.334;2023-08-06T14:24:23;99685.13;;;29.64;45.30
57600;BME280;43426;43.594;24.334;2023-08-06T14:26:48;99679.75;;;29.68;45.69
57600;BME280;43426;43.594;24.334;2023-08-06T14:29:14;99684.03;;;30.09;43.77
57600;BME280;43426;43.594;24.334;2023-08-06T14:31:40;99688.78;;;30.44;45.87
57600;BME280;43426;43.594;24.334;2023-08-06T14:34:06;99688.84;;;30.73;42.06
57600;BME280;43426;43.594;24.334;2023-08-06T14:36:32;99669.00;;;30.84;42.83
57600;BME280;43426;43.594;24.334;2023-08-06T14:38:57;99675.97;;;30.99;42.51
57600;BME280;43426;43.594;24.334;2023-08-06T14:41:22;99687.75;;;31.34;41.36
57600;BME280;43426;43.594;24.334;2023-08-06T14:43:49;99662.22;;;31.32;42.62
57600;BME280;43426;43.594;24.334;2023-08-06T14:46:15;99675.94;;;31.67;42.36
57600;BME280;43426;43.594;24.334;2023-08-06T14:48:43;99678.31;;;31.78;40.78
57600;BME280;43426;43.594;24.334;2023-08-06T14:51:09;99674.09;;;31.41;40.68
57600;BME280;43426;43.594;24.334;2023-08-06T14:53:34;99678.56;;;31.13;40.52
57600;BME280;43426;43.594;24.334;2023-08-06T14:56:00;99671.06;;;30.48;41.29
57600;BME280;43426;43.594;24.334;2023-08-06T14:58:25;99698.47;;;29.94;43.48
57600;BME280;43426;43.594;24.334;2023-08-06T15:00:50;99707.84;;;29.49;43.97
57600;BME280;43426;43.594;24.334;2023-08-06T15:03:16;99696.28;;;29.15;45.60
57600;BME280;43426;43.594;24.334;2023-08-06T15:05:47;99687.72;;;28.94;48.27
57600;BME280;43426;43.594;24.334;2023-08-06T15:08:12;99665.88;;;28.70;49.39
57600;BME280;43426;43.594;24.334;2023-08-06T15:10:38;99676.63;;;28.63;49.50
57600;BME280;43426;43.594;24.334;2023-08-06T15:13:03;99698.09;;;28.48;51.33
57600;BME280;43426;43.594;24.334;2023-08-06T15:15:29;99676.16;;;28.15;51.42
57600;BME280;43426;43.594;24.334;2023-08-06T15:17:54;99707.72;;;28.28;51.40
57600;BME280;43426;43.594;24.334;2023-08-06T15:20:19;99688.31;;;28.06;50.87
57600;BME280;43426;43.594;24.334;2023-08-06T15:22:45;99681.97;;;27.91;51.77
57600;BME280;43426;43.594;24.334;2023-08-06T15:25:10;99674.63;;;27.73;52.69
57600;BME280;43426;43.594;24.334;2023-08-06T15:27:36;99694.69;;;27.69;53.31
57600;BME280;43426;43.594;24.334;2023-08-06T15:30:03;99697.06;;;27.62;51.89
57600;BME280;43426;43.594;24.334;2023-08-06T15:32:28;99704.03;;;27.60;51.88
57600;BME280;43426;43.594;24.334;2023-08-06T15:34:54;99697.66;;;27.59;52.57
57600;BME280;43426;43.594;24.334;2023-08-06T15:37:19;99712.78;;;27.53;53.36
57600;BME280;43426;43.594;24.334;2023-08-06T15:39:45;99694.22;;;27.40;53.61
57600;BME280;43426;43.594;24.334;2023-08-06T15:42:11;99678.09;;;27.28;53.58
57600;BME280;43426;43.594;24.334;2023-08-06T15:44:36;99712.88;;;27.48;52.61
57600;BME280;43426;43.594;24.334;2023-08-06T15:47:02;99710.41;;;27.32;53.66
57600;BME280;43426;43.594;24.334;2023-08-06T15:49:28;99730.44;;;27.43;53.40
57600;BME280;43426;43.594;24.334;2023-08-06T15:51:53;99718.00;;;27.41;53.48
57600;BME280;43426;43.594;24.334;2023-08-06T15:54:19;99724.75;;;27.48;53.46
57600;BME280;43426;43.594;24.334;2023-08-06T15:56:45;99692.06;;;27.37;53.56
57600;BME280;43426;43.594;24.334;2023-08-06T15:59:30;99718.81;;;27.41;53.32
57600;BME280;43426;43.594;24.334;2023-08-06T16:01:57;99729.41;;;27.39;53.54
57600;BME280;43426;43.594;24.334;2023-08-06T16:04:25;99734.22;;;27.33;54.05
57600;BME280;43426;43.594;24.334;2023-08-06T16:06:50;99707.53;;;27.10;54.65
57600;BME280;43426;43.594;24.334;2023-08-06T16:09:16;99744.25;;;27.29;53.68
57600;BME280;43426;43.594;24.334;2023-08-06T16:11:42;99752.88;;;27.28;54.01
57600;BME280;43426;43.594;24.334;2023-08-06T16:14:07;99756.56;;;27.23;53.83
57600;BME280;43426;43.594;24.334;2023-08-06T16:16:33;99763.75;;;27.24;54.01
57600;BME280;43426;43.594;24.334;2023-08-06T16:19:00;99758.91;;;27.16;54.85
57600;BME280;43426;43.594;24.334;2023-08-06T16:21:26;99765.69;;;27.10;55.19
57600;BME280;43426;43.594;24.334;2023-08-06T16:23:54;99752.97;;;27.09;55.07
57600;BME280;43426;43.594;24.334;2023-08-06T16:26:19;99772.34;;;27.09;54.33
57600;BME280;43426;43.594;24.334;2023-08-06T16:28:45;99739.63;;;26.97;54.37
57600;BME280;43426;43.594;24.334;2023-08-06T16:31:10;99778.31;;;27.16;54.66
57600;BME280;43426;43.594;24.334;2023-08-06T16:33:36;99754.88;;;26.94;55.24
57600;BME280;43426;43.594;24.334;2023-08-06T16:36:04;99752.72;;;26.91;54.70
57600;BME280;43426;43.594;24.334;2023-08-06T16:38:31;99767.59;;;26.95;54.59
57600;BME280;43426;43.594;24.334;2023-08-06T16:40:57;99743.78;;;26.80;54.69
57600;BME280;43426;43.594;24.334;2023-08-06T16:43:23;99770.91;;;26.97;54.84
57600;BME280;43426;43.594;24.334;2023-08-06T16:45:49;99765.16;;;26.94;54.98
57600;BME280;43426;43.594;24.334;2023-08-06T16:48:14;99759.59;;;26.80;55.48
57600;BME280;43426;43.594;24.334;2023-08-06T16:50:40;99757.38;;;26.63;55.92
57600;BME280;43426;43.594;24.334;2023-08-06T16:53:07;99776.72;;;26.63;56.49
57600;BME280;43426;43.594;24.334;2023-08-06T16:55:32;99775.94;;;26.43;57.06
57600;BME280;43426;43.594;24.334;2023-08-06T16:57:58;99772.28;;;26.29;57.79